sensor_id;sensor_type;location;lat;lon;timestamp;temperature;humidity
1461;DHT22;724;49.910;12.530;2023-11-18T00:00:54;-0.20;1.00
1461;DHT22;724;49.910;12.530;2023-11-18T00:03:21;-0.10;1.00
1461;DHT22;724;49.910;12.530;2023-11-18T00:05:47;-0.10;1.00
1461;DHT22;724;49.910;12.530;2023-11-18T00:08:16;-0.20;1.00
1461;DHT22;724;49.910;12.530;2023-11-18T00:10:42;-0.20;1.00
1461;DHT22;724;49.910;12.530;2023-11-18T00:13:09;-0.20;1.00
1461;DHT22;724;49.910;12.530;2023-11-18T00:15:36;-0.30;1.00
1461;DHT22;724;49.910;12.530;2023-11-18T00:18:03;-0.30;1.00
1461;DHT22;724;49.910;12.530;2023-11-18T00:20:29;-0.30;1.00
1461;DHT22;724;49.910;12.530;2023-11-18T00:22:57;-0.30;1.00
1461;DHT22;724;49.910;12.530;2023-11-18T00:25:25;-0.40;1.00
1461;DHT22;724;49.910;12.530;2023-11-18T00:27:52;-0.30;1.00
1461;DHT22;724;49.910;12.530;2023-11-18T00:30:20;-0.40;1.00
1461;DHT22;724;49.910;12.530;2023-11-18T00:32:47;-0.40;1.00
1461;DHT22;724;49.910;12.530;2023-11-18T00:35:14;-0.40;1.00
1461;DHT22;724;49.910;12.530;2023-11-18T00:37:41;-0.40;1.00
1461;DHT22;724;49.910;12.530;2023-11-18T00:40:09;-0.40;1.00
1461;DHT22;724;49.910;12.530;2023-11-18T00:42:38;-0.30;1.00
1461;DHT22;724;49.910;12.530;2023-11-18T00:45:05;-0.30;1.00
1461;DHT22;724;49.910;12.530;2023-11-18T00:47:32;-0.30;1.00
1461;DHT22;724;49.910;12.530;2023-11-18T00:49:59;-0.30;1.00
1461;DHT22;724;49.910;12.530;2023-11-18T00:52:27;-0.30;1.00
1461;DHT22;724;49.910;12.530;2023-11-18T00:54:54;-0.40;1.00
1461;DHT22;724;49.910;12.530;2023-11-18T00:57:20;-0.40;1.00
1461;DHT22;724;49.910;12.530;2023-11-18T00:59:49;-0.40;1.00
1461;DHT22;724;49.910;12.530;2023-11-18T01:02:15;-0.30;1.00
1461;DHT22;724;49.910;12.530;2023-11-18T01:04:43;-0.30;1.00
1461;DHT22;724;49.910;12.530;2023-11-18T01:07:11;-0.40;1.00
1461;DHT22;724;49.910;12.530;2023-11-18T01:09:38;-0.40;1.00
1461;DHT22;724;49.910;12.530;2023-11-18T01:12:05;-0.40;1.00
1461;DHT22;724;49.910;12.530;2023-11-18T01:14:35;-0.30;1.00
1461;DHT22;724;49.910;12.530;2023-11-18T01:17:04;-0.20;1.00
1461;DHT22;724;49.910;12.530;2023-11-18T01:19:31;-0.20;1.00
1461;DHT22;724;49.910;12.530;2023-11-18T01:21:59;-0.20;1.00
1461;DHT22;724;49.910;12.530;2023-11-18T01:24:25;-0.10;1.00
1461;DHT22;724;49.910;12.530;2023-11-18T01:26:52;-0.10;1.00
1461;DHT22;724;49.910;12.530;2023-11-18T01:29:19;0.00;1.00
1461;DHT22;724;49.910;12.530;2023-11-18T01:31:47;0.00;1.00
1461;DHT22;724;49.910;12.530;2023-11-18T01:34:16;0.10;1.00
1461;DHT22;724;49.910;12.530;2023-11-18T01:36:44;0.10;1.00
1461;DHT22;724;49.910;12.530;2023-11-18T01:39:10;0.00;99.90
1461;DHT22;724;49.910;12.530;2023-11-18T01:41:38;0.00;99.90
1461;DHT22;724;49.910;12.530;2023-11-18T01:44:05;-0.10;99.90
1461;DHT22;724;49.910;12.530;2023-11-18T01:46:33;-0.10;99.90
1461;DHT22;724;49.910;12.530;2023-11-18T01:49:01;-0.20;99.90
1461;DHT22;724;49.910;12.530;2023-11-18T01:51:30;-0.20;99.90
1461;DHT22;724;49.910;12.530;2023-11-18T01:53:59;-0.10;1.00
1461;DHT22;724;49.910;12.530;2023-11-18T01:56:27;-0.10;99.90
1461;DHT22;724;49.910;12.530;2023-11-18T01:58:54;-0.20;99.90
1461;DHT22;724;49.910;12.530;2023-11-18T02:01:24;-0.20;99.90
1461;DHT22;724;49.910;12.530;2023-11-18T02:03:52;-0.10;99.90
1461;DHT22;724;49.910;12.530;2023-11-18T02:06:19;-0.10;99.90
1461;DHT22;724;49.910;12.530;2023-11-18T02:08:48;-0.20;99.90
1461;DHT22;724;49.910;12.530;2023-11-18T02:11:20;-0.20;99.90
1461;DHT22;724;49.910;12.530;2023-11-18T02:13:53;-0.20;99.90
1461;DHT22;724;49.910;12.530;2023-11-18T02:16:22;-0.30;99.90
1461;DHT22;724;49.910;12.530;2023-11-18T02:18:51;-0.30;99.90
1461;DHT22;724;49.910;12.530;2023-11-18T02:21:19;-0.30;1.00
1461;DHT22;724;49.910;12.530;2023-11-18T02:23:49;-0.40;1.00
1461;DHT22;724;49.910;12.530;2023-11-18T02:26:22;-0.30;1.00
1461;DHT22;724;49.910;12.530;2023-11-18T02:28:49;-0.30;1.00
1461;DHT22;724;49.910;12.530;2023-11-18T02:31:20;-0.20;1.00
1461;DHT22;724;49.910;12.530;2023-11-18T02:33:54;-0.20;1.00
1461;DHT22;724;49.910;12.530;2023-11-18T02:36:32;-0.20;1.00
1461;DHT22;724;49.910;12.530;2023-11-18T02:39:04;-0.20;1.00
1461;DHT22;724;49.910;12.530;2023-11-18T02:41:35;-0.10;1.00
1461;DHT22;724;49.910;12.530;2023-11-18T02:44:03;0.00;1.00
1461;DHT22;724;49.910;12.530;2023-11-18T02:46:34;-0.10;99.90
1461;DHT22;724;49.910;12.530;2023-11-18T02:49:01;-0.10;99.90
1461;DHT22;724;49.910;12.530;2023-11-18T02:51:29;0.00;99.90
1461;DHT22;724;49.910;12.530;2023-11-18T02:53:56;0.00;99.90
1461;DHT22;724;49.910;12.530;2023-11-18T02:56:23;-0.10;99.90
1461;DHT22;724;49.910;12.530;2023-11-18T02:58:53;0.00;99.90
1461;DHT22;724;49.910;12.530;2023-11-18T03:01:20;0.10;99.90
1461;DHT22;724;49.910;12.530;2023-11-18T03:03:50;0.10;99.90
1461;DHT22;724;49.910;12.530;2023-11-18T03:06:17;0.10;99.90
1461;DHT22;724;49.910;12.530;2023-11-18T03:08:45;0.20;91.70
1461;DHT22;724;49.910;12.530;2023-11-18T03:11:12;0.20;1.00
1461;DHT22;724;49.910;12.530;2023-11-18T03:13:39;0.10;1.00
1461;DHT22;724;49.910;12.530;2023-11-18T03:16:10;0.10;1.00
1461;DHT22;724;49.910;12.530;2023-11-18T03:18:38;0.10;1.00
1461;DHT22;724;49.910;12.530;2023-11-18T03:21:06;0.00;1.00
1461;DHT22;724;49.910;12.530;2023-11-18T03:23:37;-0.10;1.00
1461;DHT22;724;49.910;12.530;2023-11-18T03:26:05;-0.10;1.00
1461;DHT22;724;49.910;12.530;2023-11-18T03:28:32;-0.20;27.90
1461;DHT22;724;49.910;12.530;2023-11-18T03:30:59;-0.20;99.90
1461;DHT22;724;49.910;12.530;2023-11-18T03:33:27;-0.20;99.90
1461;DHT22;724;49.910;12.530;2023-11-18T03:35:55;-0.30;99.90
1461;DHT22;724;49.910;12.530;2023-11-18T03:38:23;-0.20;99.90
1461;DHT22;724;49.910;12.530;2023-11-18T03:40:50;-0.10;99.90
1461;DHT22;724;49.910;12.530;2023-11-18T03:43:18;-0.10;99.90
1461;DHT22;724;49.910;12.530;2023-11-18T03:45:45;-0.10;99.90
1461;DHT22;724;49.910;12.530;2023-11-18T03:48:12;-0.20;99.90
1461;DHT22;724;49.910;12.530;2023-11-18T03:50:41;-0.20;99.90
1461;DHT22;724;49.910;12.530;2023-11-18T03:53:10;-0.20;99.90
1461;DHT22;724;49.910;12.530;2023-11-18T03:55:37;-0.20;99.90
1461;DHT22;724;49.910;12.530;2023-11-18T03:58:05;-0.30;99.90
1461;DHT22;724;49.910;12.530;2023-11-18T04:00:34;-0.20;99.90
1461;DHT22;724;49.910;12.530;2023-11-18T04:03:01;-0.10;1.00
1461;DHT22;724;49.910;12.530;2023-11-18T04:05:28;-0.10;1.00
1461;DHT22;724;49.910;12.530;2023-11-18T04:07:57;-0.10;1.00
1461;DHT22;724;49.910;12.530;2023-11-18T04:10:24;0.00;99.90
1461;DHT22;724;49.910;12.530;2023-11-18T04:12:50;0.00;99.90
1461;DHT22;724;49.910;12.530;2023-11-18T04:15:17;-0.10;99.90
1461;DHT22;724;49.910;12.530;2023-11-18T04:17:44;0.00;99.90
1461;DHT22;724;49.910;12.530;2023-11-18T04:20:11;0.00;99.90
1461;DHT22;724;49.910;12.530;2023-11-18T04:22:39;0.00;99.90
1461;DHT22;724;49.910;12.530;2023-11-18T04:25:08;0.10;99.90
1461;DHT22;724;49.910;12.530;2023-11-18T04:27:35;0.10;99.90
1461;DHT22;724;49.910;12.530;2023-11-18T04:30:02;0.20;20.50
1461;DHT22;724;49.910;12.530;2023-11-18T04:32:29;0.00;1.00
1461;DHT22;724;49.910;12.530;2023-11-18T04:34:58;0.00;1.00
1461;DHT22;724;49.910;12.530;2023-11-18T04:37:25;0.10;1.00
1461;DHT22;724;49.910;12.530;2023-11-18T04:39:52;0.10;1.00
1461;DHT22;724;49.910;12.530;2023-11-18T04:42:20;0.20;1.00
1461;DHT22;724;49.910;12.530;2023-11-18T04:44:47;0.10;1.00
1461;DHT22;724;49.910;12.530;2023-11-18T04:47:14;0.10;1.00
1461;DHT22;724;49.910;12.530;2023-11-18T04:49:43;0.20;1.00
1461;DHT22;724;49.910;12.530;2023-11-18T04:52:10;0.20;1.00
1461;DHT22;724;49.910;12.530;2023-11-18T04:54:37;0.20;1.00
1461;DHT22;724;49.910;12.530;2023-11-18T04:57:04;0.30;1.00
1461;DHT22;724;49.910;12.530;2023-11-18T04:59:32;0.20;1.00
1461;DHT22;724;49.910;12.530;2023-11-18T05:01:59;0.20;1.00
1461;DHT22;724;49.910;12.530;2023-11-18T05:04:28;0.10;1.00
1461;DHT22;724;49.910;12.530;2023-11-18T05:06:55;0.10;1.00
1461;DHT22;724;49.910;12.530;2023-11-18T05:09:22;0.10;1.00
1461;DHT22;724;49.910;12.530;2023-11-18T05:11:49;0.10;1.00
1461;DHT22;724;49.910;12.530;2023-11-18T05:14:16;0.20;1.00
1461;DHT22;724;49.910;12.530;2023-11-18T05:16:45;0.20;1.00
1461;DHT22;724;49.910;12.530;2023-11-18T05:19:12;0.10;1.00
1461;DHT22;724;49.910;12.530;2023-11-18T05:21:39;0.10;1.00
1461;DHT22;724;49.910;12.530;2023-11-18T05:24:07;0.10;1.00
1461;DHT22;724;49.910;12.530;2023-11-18T05:26:35;0.10;1.00
1461;DHT22;724;49.910;12.530;2023-11-18T05:29:02;0.20;1.00
1461;DHT22;724;49.910;12.530;2023-11-18T05:31:29;0.20;1.00
1461;DHT22;724;49.910;12.530;2023-11-18T05:33:59;0.30;1.00
1461;DHT22;724;49.910;12.530;2023-11-18T05:36:25;0.20;1.00
1461;DHT22;724;49.910;12.530;2023-11-18T05:38:55;0.20;1.00
1461;DHT22;724;49.910;12.530;2023-11-18T05:41:22;0.20;1.00
1461;DHT22;724;49.910;12.530;2023-11-18T05:43:53;0.20;21.30
1461;DHT22;724;49.910;12.530;2023-11-18T05:46:23;0.30;1.00
1461;DHT22;724;49.910;12.530;2023-11-18T05:48:52;0.30;1.00
1461;DHT22;724;49.910;12.530;2023-11-18T05:51:22;0.30;1.00
1461;DHT22;724;49.910;12.530;2023-11-18T05:53:49;0.20;1.00
1461;DHT22;724;49.910;12.530;2023-11-18T05:56:17;0.20;1.00
1461;DHT22;724;49.910;12.530;2023-11-18T05:58:45;0.10;1.00
1461;DHT22;724;49.910;12.530;2023-11-18T06:01:13;0.20;1.00
1461;DHT22;724;49.910;12.530;2023-11-18T06:03:41;0.10;1.00
1461;DHT22;724;49.910;12.530;2023-11-18T06:06:09;0.10;99.90
1461;DHT22;724;49.910;12.530;2023-11-18T06:08:37;0.20;99.90
1461;DHT22;724;49.910;12.530;2023-11-18T06:11:06;0.20;99.90
1461;DHT22;724;49.910;12.530;2023-11-18T06:13:40;0.20;99.90
1461;DHT22;724;49.910;12.530;2023-11-18T06:16:12;0.20;99.90
1461;DHT22;724;49.910;12.530;2023-11-18T06:18:41;0.30;99.90
1461;DHT22;724;49.910;12.530;2023-11-18T06:21:11;0.30;99.90
1461;DHT22;724;49.910;12.530;2023-11-18T06:23:39;0.30;99.90
1461;DHT22;724;49.910;12.530;2023-11-18T06:26:06;0.30;93.20
1461;DHT22;724;49.910;12.530;2023-11-18T06:28:35;0.30;55.40
1461;DHT22;724;49.910;12.530;2023-11-18T06:31:03;0.30;93.40
1461;DHT22;724;49.910;12.530;2023-11-18T06:33:30;0.30;99.90
1461;DHT22;724;49.910;12.530;2023-11-18T06:35:59;0.30;99.90
1461;DHT22;724;49.910;12.530;2023-11-18T06:38:26;0.30;99.90
1461;DHT22;724;49.910;12.530;2023-11-18T06:40:57;0.30;96.70
1461;DHT22;724;49.910;12.530;2023-11-18T06:43:29;0.30;28.30
1461;DHT22;724;49.910;12.530;2023-11-18T06:46:08;0.30;57.10
1461;DHT22;724;49.910;12.530;2023-11-18T06:48:36;0.20;80.60
1461;DHT22;724;49.910;12.530;2023-11-18T06:51:03;0.20;99.90
1461;DHT22;724;49.910;12.530;2023-11-18T06:53:33;0.20;99.90
1461;DHT22;724;49.910;12.530;2023-11-18T06:56:01;0.20;99.90
1461;DHT22;724;49.910;12.530;2023-11-18T06:58:28;0.20;99.90
1461;DHT22;724;49.910;12.530;2023-11-18T07:00:55;0.10;99.90
1461;DHT22;724;49.910;12.530;2023-11-18T07:03:22;0.20;99.90
1461;DHT22;724;49.910;12.530;2023-11-18T07:05:48;0.20;99.90
1461;DHT22;724;49.910;12.530;2023-11-18T07:08:17;0.40;96.00
1461;DHT22;724;49.910;12.530;2023-11-18T07:10:45;0.50;1.00
1461;DHT22;724;49.910;12.530;2023-11-18T07:13:13;0.60;1.00
1461;DHT22;724;49.910;12.530;2023-11-18T07:15:40;0.70;1.00
1461;DHT22;724;49.910;12.530;2023-11-18T07:18:07;0.60;1.00
1461;DHT22;724;49.910;12.530;2023-11-18T07:20:34;0.70;1.00
1461;DHT22;724;49.910;12.530;2023-11-18T07:23:01;0.70;1.00
1461;DHT22;724;49.910;12.530;2023-11-18T07:25:28;0.80;1.00
1461;DHT22;724;49.910;12.530;2023-11-18T07:27:55;0.70;1.00
1461;DHT22;724;49.910;12.530;2023-11-18T07:30:23;0.90;1.00
1461;DHT22;724;49.910;12.530;2023-11-18T07:32:51;1.10;1.00
1461;DHT22;724;49.910;12.530;2023-11-18T07:35:17;1.00;99.90
1461;DHT22;724;49.910;12.530;2023-11-18T07:37:44;1.00;99.90
1461;DHT22;724;49.910;12.530;2023-11-18T07:40:11;1.10;99.90
1461;DHT22;724;49.910;12.530;2023-11-18T07:42:40;1.20;99.90
1461;DHT22;724;49.910;12.530;2023-11-18T07:45:07;1.10;52.40
1461;DHT22;724;49.910;12.530;2023-11-18T07:47:44;1.30;79.00
1461;DHT22;724;49.910;12.530;2023-11-18T07:50:11;1.40;1.00
1461;DHT22;724;49.910;12.530;2023-11-18T07:52:39;1.20;1.00
1461;DHT22;724;49.910;12.530;2023-11-18T07:55:06;1.20;1.00
1461;DHT22;724;49.910;12.530;2023-11-18T07:57:36;1.00;1.00
1461;DHT22;724;49.910;12.530;2023-11-18T08:00:03;1.10;1.00
1461;DHT22;724;49.910;12.530;2023-11-18T08:02:31;1.30;1.00
1461;DHT22;724;49.910;12.530;2023-11-18T08:04:59;1.30;1.00
1461;DHT22;724;49.910;12.530;2023-11-18T08:07:26;1.20;1.00
1461;DHT22;724;49.910;12.530;2023-11-18T08:09:52;1.10;1.00
1461;DHT22;724;49.910;12.530;2023-11-18T08:12:19;0.90;1.00
1461;DHT22;724;49.910;12.530;2023-11-18T08:14:46;1.00;1.00
1461;DHT22;724;49.910;12.530;2023-11-18T08:17:13;1.20;1.00
1461;DHT22;724;49.910;12.530;2023-11-18T08:19:40;1.20;1.00
1461;DHT22;724;49.910;12.530;2023-11-18T08:22:08;1.50;1.00
1461;DHT22;724;49.910;12.530;2023-11-18T08:24:35;1.40;1.00
1461;DHT22;724;49.910;12.530;2023-11-18T08:27:02;1.60;99.90
1461;DHT22;724;49.910;12.530;2023-11-18T08:29:32;1.30;99.90
1461;DHT22;724;49.910;12.530;2023-11-18T08:31:59;1.20;99.90
1461;DHT22;724;49.910;12.530;2023-11-18T08:34:26;1.20;99.90
1461;DHT22;724;49.910;12.530;2023-11-18T08:36:53;1.40;99.90
1461;DHT22;724;49.910;12.530;2023-11-18T08:39:21;1.50;99.90
1461;DHT22;724;49.910;12.530;2023-11-18T08:41:51;1.70;99.90
1461;DHT22;724;49.910;12.530;2023-11-18T08:44:18;2.00;99.90
1461;DHT22;724;49.910;12.530;2023-11-18T08:46:44;2.10;99.80
1461;DHT22;724;49.910;12.530;2023-11-18T08:49:12;2.30;1.00
1461;DHT22;724;49.910;12.530;2023-11-18T08:51:39;3.10;1.00
1461;DHT22;724;49.910;12.530;2023-11-18T08:54:07;4.00;1.00
1461;DHT22;724;49.910;12.530;2023-11-18T08:56:49;8.60;99.90
1461;DHT22;724;49.910;12.530;2023-11-18T08:59:18;10.40;1.00
1461;DHT22;724;49.910;12.530;2023-11-18T09:01:50;12.20;99.90
1461;DHT22;724;49.910;12.530;2023-11-18T09:04:24;11.60;99.90
1461;DHT22;724;49.910;12.530;2023-11-18T09:06:51;9.40;99.90
1461;DHT22;724;49.910;12.530;2023-11-18T09:09:19;8.80;1.40
1461;DHT22;724;49.910;12.530;2023-11-18T09:11:53;6.00;1.00
1461;DHT22;724;49.910;12.530;2023-11-18T09:14:21;4.60;1.00
1461;DHT22;724;49.910;12.530;2023-11-18T09:16:50;4.20;99.20
1461;DHT22;724;49.910;12.530;2023-11-18T09:19:17;4.10;99.90
1461;DHT22;724;49.910;12.530;2023-11-18T09:21:45;3.90;99.90
1461;DHT22;724;49.910;12.530;2023-11-18T09:24:12;3.30;99.90
1461;DHT22;724;49.910;12.530;2023-11-18T09:26:39;3.40;99.90
1461;DHT22;724;49.910;12.530;2023-11-18T09:29:07;3.50;99.90
1461;DHT22;724;49.910;12.530;2023-11-18T09:31:34;3.70;99.90
1461;DHT22;724;49.910;12.530;2023-11-18T09:34:03;3.60;99.90
1461;DHT22;724;49.910;12.530;2023-11-18T09:36:32;3.60;99.90
1461;DHT22;724;49.910;12.530;2023-11-18T09:38:59;4.10;99.90
1461;DHT22;724;49.910;12.530;2023-11-18T09:41:28;4.20;99.90
1461;DHT22;724;49.910;12.530;2023-11-18T09:43:55;4.10;99.90
1461;DHT22;724;49.910;12.530;2023-11-18T09:46:29;3.90;99.90
1461;DHT22;724;49.910;12.530;2023-11-18T09:49:06;3.40;99.90
1461;DHT22;724;49.910;12.530;2023-11-18T09:51:42;3.80;99.90
1461;DHT22;724;49.910;12.530;2023-11-18T09:54:18;4.10;99.90
1461;DHT22;724;49.910;12.530;2023-11-18T09:56:55;3.80;99.90
1461;DHT22;724;49.910;12.530;2023-11-18T09:59:31;3.30;99.90
1461;DHT22;724;49.910;12.530;2023-11-18T10:02:02;2.80;99.90
1461;DHT22;724;49.910;12.530;2023-11-18T10:04:30;3.00;1.00
1461;DHT22;724;49.910;12.530;2023-11-18T10:06:57;3.10;1.00
1461;DHT22;724;49.910;12.530;2023-11-18T10:09:25;2.80;1.00
1461;DHT22;724;49.910;12.530;2023-11-18T10:11:55;2.80;1.00
1461;DHT22;724;49.910;12.530;2023-11-18T10:14:25;3.20;1.00
1461;DHT22;724;49.910;12.530;2023-11-18T10:16:52;3.20;1.00
1461;DHT22;724;49.910;12.530;2023-11-18T10:19:21;3.50;1.00
1461;DHT22;724;49.910;12.530;2023-11-18T10:21:51;3.70;1.00
1461;DHT22;724;49.910;12.530;2023-11-18T10:24:18;3.10;1.00
1461;DHT22;724;49.910;12.530;2023-11-18T10:26:53;3.20;1.00
1461;DHT22;724;49.910;12.530;2023-11-18T10:29:21;3.10;1.00
1461;DHT22;724;49.910;12.530;2023-11-18T10:31:49;3.40;1.00
1461;DHT22;724;49.910;12.530;2023-11-18T10:34:20;3.70;1.00
1461;DHT22;724;49.910;12.530;2023-11-18T10:36:59;3.90;1.00
1461;DHT22;724;49.910;12.530;2023-11-18T10:39:28;4.10;1.00
1461;DHT22;724;49.910;12.530;2023-11-18T10:41:59;4.40;99.90
1461;DHT22;724;49.910;12.530;2023-11-18T10:44:26;4.30;99.90
1461;DHT22;724;49.910;12.530;2023-11-18T10:46:53;4.10;99.90
1461;DHT22;724;49.910;12.530;2023-11-18T10:49:22;4.20;99.90
1461;DHT22;724;49.910;12.530;2023-11-18T10:51:50;4.10;99.90
1461;DHT22;724;49.910;12.530;2023-11-18T10:54:17;4.40;99.90
1461;DHT22;724;49.910;12.530;2023-11-18T10:56:48;4.40;99.90
1461;DHT22;724;49.910;12.530;2023-11-18T10:59:15;5.00;99.90
1461;DHT22;724;49.910;12.530;2023-11-18T11:01:44;6.30;99.90
1461;DHT22;724;49.910;12.530;2023-11-18T11:04:14;9.00;16.80
1461;DHT22;724;49.910;12.530;2023-11-18T11:06:44;9.40;1.00
1461;DHT22;724;49.910;12.530;2023-11-18T11:09:18;12.00;1.00
1461;DHT22;724;49.910;12.530;2023-11-18T11:11:48;12.60;1.00
1461;DHT22;724;49.910;12.530;2023-11-18T11:14:17;12.00;1.00
1461;DHT22;724;49.910;12.530;2023-11-18T11:16:52;13.20;1.00
1461;DHT22;724;49.910;12.530;2023-11-18T11:19:24;13.10;1.00
1461;DHT22;724;49.910;12.530;2023-11-18T11:22:01;14.40;1.00
1461;DHT22;724;49.910;12.530;2023-11-18T11:24:40;14.50;1.00
1461;DHT22;724;49.910;12.530;2023-11-18T11:27:27;14.70;1.00
1461;DHT22;724;49.910;12.530;2023-11-18T11:30:10;12.40;1.00
1461;DHT22;724;49.910;12.530;2023-11-18T11:32:50;10.80;1.00
1461;DHT22;724;49.910;12.530;2023-11-18T11:35:22;9.50;1.00
1461;DHT22;724;49.910;12.530;2023-11-18T11:37:52;8.70;1.00
1461;DHT22;724;49.910;12.530;2023-11-18T11:40:28;8.30;1.00
1461;DHT22;724;49.910;12.530;2023-11-18T11:42:56;8.70;1.00
1461;DHT22;724;49.910;12.530;2023-11-18T11:45:27;9.50;1.00
1461;DHT22;724;49.910;12.530;2023-11-18T11:47:56;9.00;1.00
1461;DHT22;724;49.910;12.530;2023-11-18T11:50:54;9.60;1.00
1461;DHT22;724;49.910;12.530;2023-11-18T11:53:28;10.50;1.00
1461;DHT22;724;49.910;12.530;2023-11-18T11:56:01;11.60;1.00
1461;DHT22;724;49.910;12.530;2023-11-18T11:58:33;13.40;1.00
1461;DHT22;724;49.910;12.530;2023-11-18T12:01:14;13.80;1.00
1461;DHT22;724;49.910;12.530;2023-11-18T12:03:43;12.20;99.90
1461;DHT22;724;49.910;12.530;2023-11-18T12:06:13;9.50;99.90
1461;DHT22;724;49.910;12.530;2023-11-18T12:08:43;7.60;99.90
1461;DHT22;724;49.910;12.530;2023-11-18T12:11:12;6.70;99.90
1461;DHT22;724;49.910;12.530;2023-11-18T12:14:00;6.30;99.90
1461;DHT22;724;49.910;12.530;2023-11-18T12:17:00;6.60;99.90
1461;DHT22;724;49.910;12.530;2023-11-18T12:19:33;6.90;1.00
1461;DHT22;724;49.910;12.530;2023-11-18T12:22:10;5.60;99.90
1461;DHT22;724;49.910;12.530;2023-11-18T12:24:45;5.60;99.90
1461;DHT22;724;49.910;12.530;2023-11-18T12:27:12;6.10;1.00
1461;DHT22;724;49.910;12.530;2023-11-18T12:29:41;6.40;1.00
1461;DHT22;724;49.910;12.530;2023-11-18T12:32:09;6.30;1.00
1461;DHT22;724;49.910;12.530;2023-11-18T12:34:50;6.70;1.00
1461;DHT22;724;49.910;12.530;2023-11-18T12:37:33;6.30;99.90
1461;DHT22;724;49.910;12.530;2023-11-18T12:40:30;6.10;99.90
1461;DHT22;724;49.910;12.530;2023-11-18T12:43:01;5.50;99.90
1461;DHT22;724;49.910;12.530;2023-11-18T12:48:43;5.80;99.90
1461;DHT22;724;49.910;12.530;2023-11-18T12:51:12;5.70;99.90
1461;DHT22;724;49.910;12.530;2023-11-18T12:53:47;5.60;99.90
1461;DHT22;724;49.910;12.530;2023-11-18T12:56:17;5.80;99.90
1461;DHT22;724;49.910;12.530;2023-11-18T12:58:45;6.20;99.90
1461;DHT22;724;49.910;12.530;2023-11-18T13:01:12;5.40;99.90
1461;DHT22;724;49.910;12.530;2023-11-18T13:03:39;5.40;99.90
1461;DHT22;724;49.910;12.530;2023-11-18T13:06:07;5.40;99.90
1461;DHT22;724;49.910;12.530;2023-11-18T13:08:35;5.60;99.90
1461;DHT22;724;49.910;12.530;2023-11-18T13:11:02;5.40;99.90
1461;DHT22;724;49.910;12.530;2023-11-18T13:13:33;5.10;99.90
1461;DHT22;724;49.910;12.530;2023-11-18T13:16:01;4.90;99.90
1461;DHT22;724;49.910;12.530;2023-11-18T13:18:28;4.90;99.90
1461;DHT22;724;49.910;12.530;2023-11-18T13:21:07;5.00;99.90
1461;DHT22;724;49.910;12.530;2023-11-18T13:23:36;4.70;99.90
1461;DHT22;724;49.910;12.530;2023-11-18T13:26:03;4.80;99.90
1461;DHT22;724;49.910;12.530;2023-11-18T13:28:33;4.90;99.90
1461;DHT22;724;49.910;12.530;2023-11-18T13:31:00;5.00;1.00
1461;DHT22;724;49.910;12.530;2023-11-18T13:33:27;5.00;1.00
1461;DHT22;724;49.910;12.530;2023-11-18T13:35:54;5.20;1.00
1461;DHT22;724;49.910;12.530;2023-11-18T13:38:20;5.30;1.00
1461;DHT22;724;49.910;12.530;2023-11-18T13:40:47;5.20;1.00
1461;DHT22;724;49.910;12.530;2023-11-18T13:43:15;5.20;1.00
1461;DHT22;724;49.910;12.530;2023-11-18T13:45:43;5.00;1.00
1461;DHT22;724;49.910;12.530;2023-11-18T13:48:11;5.00;1.00
1461;DHT22;724;49.910;12.530;2023-11-18T13:50:40;4.80;1.00
1461;DHT22;724;49.910;12.530;2023-11-18T13:53:08;4.90;1.00
1461;DHT22;724;49.910;12.530;2023-11-18T13:55:36;4.60;1.00
1461;DHT22;724;49.910;12.530;2023-11-18T13:58:05;4.50;1.00
1461;DHT22;724;49.910;12.530;2023-11-18T14:00:32;4.40;1.00
1461;DHT22;724;49.910;12.530;2023-11-18T14:03:01;4.30;1.00
1461;DHT22;724;49.910;12.530;2023-11-18T14:05:33;4.60;1.00
1461;DHT22;724;49.910;12.530;2023-11-18T14:08:00;4.40;1.00
1461;DHT22;724;49.910;12.530;2023-11-18T14:10:34;4.30;1.00
1461;DHT22;724;49.910;12.530;2023-11-18T14:13:04;4.30;1.00
1461;DHT22;724;49.910;12.530;2023-11-18T14:15:34;4.10;1.00
1461;DHT22;724;49.910;12.530;2023-11-18T14:18:03;4.10;1.00
1461;DHT22;724;49.910;12.530;2023-11-18T14:20:33;4.00;1.00
1461;DHT22;724;49.910;12.530;2023-11-18T14:23:01;3.90;1.00
1461;DHT22;724;49.910;12.530;2023-11-18T14:25:29;3.90;1.00
1461;DHT22;724;49.910;12.530;2023-11-18T14:27:55;3.90;1.00
1461;DHT22;724;49.910;12.530;2023-11-18T14:30:23;4.00;1.00
1461;DHT22;724;49.910;12.530;2023-11-18T14:32:51;3.90;1.00
1461;DHT22;724;49.910;12.530;2023-11-18T14:35:19;3.90;1.00
1461;DHT22;724;49.910;12.530;2023-11-18T14:37:46;3.90;1.00
1461;DHT22;724;49.910;12.530;2023-11-18T14:40:14;4.10;1.00
1461;DHT22;724;49.910;12.530;2023-11-18T14:42:41;4.00;1.00
1461;DHT22;724;49.910;12.530;2023-11-18T14:45:10;4.00;1.00
1461;DHT22;724;49.910;12.530;2023-11-18T14:47:37;3.80;1.00
1461;DHT22;724;49.910;12.530;2023-11-18T14:50:05;3.70;1.00
1461;DHT22;724;49.910;12.530;2023-11-18T14:52:42;3.40;1.00
1461;DHT22;724;49.910;12.530;2023-11-18T14:55:09;3.30;1.00
1461;DHT22;724;49.910;12.530;2023-11-18T14:57:37;3.20;1.00
1461;DHT22;724;49.910;12.530;2023-11-18T15:00:05;3.10;1.00
1461;DHT22;724;49.910;12.530;2023-11-18T15:02:46;3.00;1.00
1461;DHT22;724;49.910;12.530;2023-11-18T15:05:14;3.00;1.00
1461;DHT22;724;49.910;12.530;2023-11-18T15:07:45;2.90;1.00
1461;DHT22;724;49.910;12.530;2023-11-18T15:10:14;2.80;1.00
1461;DHT22;724;49.910;12.530;2023-11-18T15:12:45;2.70;1.00
1461;DHT22;724;49.910;12.530;2023-11-18T15:15:12;2.60;1.00
1461;DHT22;724;49.910;12.530;2023-11-18T15:17:44;2.50;1.00
1461;DHT22;724;49.910;12.530;2023-11-18T15:20:11;2.40;1.00
1461;DHT22;724;49.910;12.530;2023-11-18T15:22:41;2.30;23.70
1461;DHT22;724;49.910;12.530;2023-11-18T15:25:11;2.30;87.80
1461;DHT22;724;49.910;12.530;2023-11-18T15:27:41;2.40;99.90
1461;DHT22;724;49.910;12.530;2023-11-18T15:30:09;2.40;99.90
1461;DHT22;724;49.910;12.530;2023-11-18T15:32:39;2.40;99.90
1461;DHT22;724;49.910;12.530;2023-11-18T15:35:07;2.30;99.90
1461;DHT22;724;49.910;12.530;2023-11-18T15:37:38;2.20;99.90
1461;DHT22;724;49.910;12.530;2023-11-18T15:40:08;2.20;99.90
1461;DHT22;724;49.910;12.530;2023-11-18T15:42:38;2.20;99.90
1461;DHT22;724;49.910;12.530;2023-11-18T15:45:07;2.10;99.90
1461;DHT22;724;49.910;12.530;2023-11-18T15:47:36;2.30;99.90
1461;DHT22;724;49.910;12.530;2023-11-18T15:50:04;2.30;99.90
1461;DHT22;724;49.910;12.530;2023-11-18T15:52:31;2.30;99.90
1461;DHT22;724;49.910;12.530;2023-11-18T15:55:00;2.20;99.90
1461;DHT22;724;49.910;12.530;2023-11-18T15:57:27;2.10;99.90
1461;DHT22;724;49.910;12.530;2023-11-18T15:59:56;1.80;99.90
1461;DHT22;724;49.910;12.530;2023-11-18T16:02:23;1.80;1.00
1461;DHT22;724;49.910;12.530;2023-11-18T16:04:51;1.90;1.00
1461;DHT22;724;49.910;12.530;2023-11-18T16:07:19;2.00;1.00
1461;DHT22;724;49.910;12.530;2023-11-18T16:09:46;1.90;1.00
1461;DHT22;724;49.910;12.530;2023-11-18T16:12:13;2.00;1.00
1461;DHT22;724;49.910;12.530;2023-11-18T16:14:40;2.00;1.00
1461;DHT22;724;49.910;12.530;2023-11-18T16:17:08;2.10;1.00
1461;DHT22;724;49.910;12.530;2023-11-18T16:19:35;2.00;1.00
1461;DHT22;724;49.910;12.530;2023-11-18T16:22:02;2.00;1.00
1461;DHT22;724;49.910;12.530;2023-11-18T16:24:29;2.10;1.00
1461;DHT22;724;49.910;12.530;2023-11-18T16:26:56;2.20;1.00
1461;DHT22;724;49.910;12.530;2023-11-18T16:29:22;2.20;1.00
1461;DHT22;724;49.910;12.530;2023-11-18T16:31:49;2.10;1.00
1461;DHT22;724;49.910;12.530;2023-11-18T16:34:17;2.10;1.00
1461;DHT22;724;49.910;12.530;2023-11-18T16:36:45;2.10;1.00
1461;DHT22;724;49.910;12.530;2023-11-18T16:39:13;2.10;1.00